Time;durP1;ratioP1;P1;durP2;ratioP2;P2;SDS_P1;SDS_P2;PMS_P1;PMS_P2;Temp;Humidity;BMP_temperature;BMP_pressure;BME280_temperature;BME280_humidity;BME280_pressure;Samples;Min_cycle;Max_cycle;Signal;HPM_P1;HPM_P2
2021/05/09 00:00:45;;;;;;;4.50;3.70;;;;;;;;;;2098318;28;20206;-63
2021/05/09 00:01:46;;;;;;;3.35;3.05;;;;;;;;;;2097785;28;20182;-60
2021/05/09 00:02:46;;;;;;;3.50;3.25;;;;;;;;;;2089759;28;20218;-63
2021/05/09 00:03:47;;;;;;;4.03;3.25;;;;;;;;;;2092283;28;20222;-64
2021/05/09 00:04:47;;;;;;;3.83;3.33;;;;;;;;;;2090869;28;20675;-64
2021/05/09 00:05:47;;;;;;;3.20;3.00;;;;;;;;;;2098048;28;20198;-63
2021/05/09 00:06:48;;;;;;;2.97;2.75;;;;;;;;;;2097691;28;20628;-62
2021/05/09 00:07:49;;;;;;;3.20;2.70;;;;;;;;;;2081805;28;20309;-65
2021/05/09 00:08:49;;;;;;;2.67;2.58;;;;;;;;;;2081732;28;20161;-65
2021/05/09 00:09:50;;;;;;;4.68;3.08;;;;;;;;;;2090641;28;20587;-64
2021/05/09 00:10:50;;;;;;;3.58;2.80;;;;;;;;;;2095062;28;20215;-63
2021/05/09 00:11:50;;;;;;;3.15;2.95;;;;;;;;;;2089357;28;20203;-63
2021/05/09 00:12:51;;;;;;;3.00;2.80;;;;;;;;;;2089216;28;20183;-63
2021/05/09 00:13:51;;;;;;;3.88;2.80;;;;;;;;;;2088257;28;20704;-63
2021/05/09 00:14:51;;;;;;;3.00;2.80;;;;;;;;;;2089957;28;20195;-63
2021/05/09 00:15:52;;;;;;;3.38;3.17;;;;;;;;;;2096304;28;20247;-63
2021/05/09 00:16:59;;;;;;;4.15;2.88;;;;;;;;;;2087351;28;20182;-59
2021/05/09 00:17:59;;;;;;;3.33;3.13;;;;;;;;;;2087705;28;20175;-61
2021/05/09 00:19:00;;;;;;;3.88;3.00;;;;;;;;;;2089906;28;20711;-60
2021/05/09 00:20:00;;;;;;;3.05;2.80;;;;;;;;;;2091747;28;20206;-60
2021/05/09 00:21:00;;;;;;;3.03;2.83;;;;;;;;;;2094160;28;20238;-63
2021/05/09 00:22:01;;;;;;;3.70;2.70;;;;;;;;;;2097381;28;20197;-63
2021/05/09 00:23:01;;;;;;;3.45;2.88;;;;;;;;;;2090298;28;20250;-62
2021/05/09 00:24:01;;;;;;;3.28;3.08;;;;;;;;;;2096606;28;20256;-64
2021/05/09 00:25:02;;;;;;;3.70;3.30;;;;;;;;;;2089393;28;20164;-62
2021/05/09 00:26:03;;;;;;;3.55;3.35;;;;;;;;;;2089199;28;20485;-64
2021/05/09 00:27:03;;;;;;;3.40;3.20;;;;;;;;;;2089464;28;20168;-63
2021/05/09 00:28:04;;;;;;;3.92;3.40;;;;;;;;;;2095687;28;20175;-63
2021/05/09 00:29:05;;;;;;;3.05;2.85;;;;;;;;;;2083302;28;20242;-63
2021/05/09 00:30:05;;;;;;;3.05;2.85;;;;;;;;;;2097321;28;20174;-63
2021/05/09 00:31:06;;;;;;;3.50;2.83;;;;;;;;;;2089687;28;20203;-60
2021/05/09 00:32:06;;;;;;;3.88;3.50;;;;;;;;;;2089401;28;20210;-63
2021/05/09 00:33:06;;;;;;;3.70;3.40;;;;;;;;;;2089671;28;20163;-62
2021/05/09 00:34:07;;;;;;;4.20;3.80;;;;;;;;;;2089555;28;20210;-62
2021/05/09 00:35:07;;;;;;;3.53;3.33;;;;;;;;;;2091264;28;20225;-63
2021/05/09 00:36:07;;;;;;;4.32;3.92;;;;;;;;;;2095038;28;20174;-64
2021/05/09 00:37:08;;;;;;;4.93;3.80;;;;;;;;;;2092205;28;20180;-62
2021/05/09 00:38:08;;;;;;;5.28;3.67;;;;;;;;;;2098064;28;20167;-62
2021/05/09 00:39:08;;;;;;;3.78;3.47;;;;;;;;;;2097173;28;20262;-63
2021/05/09 00:40:09;;;;;;;4.30;3.90;;;;;;;;;;2097177;28;20163;-61
2021/05/09 00:41:09;;;;;;;3.88;3.58;;;;;;;;;;2095320;28;20757;-63
2021/05/09 00:42:10;;;;;;;3.97;3.38;;;;;;;;;;2088779;28;20631;-63
2021/05/09 00:43:10;;;;;;;5.25;3.88;;;;;;;;;;2081179;28;20179;-60
2021/05/09 00:44:10;;;;;;;4.15;3.85;;;;;;;;;;2091407;28;20259;-62
2021/05/09 00:45:11;;;;;;;4.13;3.72;;;;;;;;;;2102416;28;20261;-62
2021/05/09 00:46:11;;;;;;;3.75;3.40;;;;;;;;;;2090078;28;20245;-62
2021/05/09 00:47:12;;;;;;;3.97;3.50;;;;;;;;;;2089703;28;20573;-62
2021/05/09 00:48:13;;;;;;;4.40;3.67;;;;;;;;;;2089662;28;20632;-63
2021/05/09 00:49:13;;;;;;;3.92;3.58;;;;;;;;;;2088480;28;20171;-63
2021/05/09 00:50:14;;;;;;;4.13;3.50;;;;;;;;;;2092274;28;20182;-63
2021/05/09 00:51:14;;;;;;;3.90;3.35;;;;;;;;;;2089842;28;20179;-63
2021/05/09 00:52:15;;;;;;;3.88;3.55;;;;;;;;;;2083954;28;20232;-62
2021/05/09 00:53:17;;;;;;;3.72;3.42;;;;;;;;;;2081402;28;20553;-63
2021/05/09 00:54:20;;;;;;;3.33;3.03;;;;;;;;;;2088069;28;20179;-63
2021/05/09 00:55:21;;;;;;;3.67;3.35;;;;;;;;;;2095152;28;20182;-63
2021/05/09 00:56:23;;;;;;;3.50;3.30;;;;;;;;;;2094348;28;20296;-62
2021/05/09 00:57:23;;;;;;;3.67;3.30;;;;;;;;;;2094213;28;20183;-62
2021/05/09 00:58:25;;;;;;;3.42;3.13;;;;;;;;;;2090841;28;20202;-62
2021/05/09 00:59:28;;;;;;;6.28;3.60;;;;;;;;;;2090849;28;20162;-62
2021/05/09 01:00:29;;;;;;;3.58;3.30;;;;;;;;;;2092239;28;20586;-62
2021/05/09 01:01:33;;;;;;;4.50;4.10;;;;;;;;;;2094533;28;20506;-63
2021/05/09 01:02:35;;;;;;;4.30;3.92;;;;;;;;;;2085443;28;20546;-63
2021/05/09 01:03:37;;;;;;;5.47;5.05;;;;;;;;;;2090683;28;20231;-63
2021/05/09 01:04:37;;;;;;;6.13;3.65;;;;;;;;;;2092655;28;20835;-63
2021/05/09 01:05:40;;;;;;;4.20;3.85;;;;;;;;;;2088925;28;20203;-63
2021/05/09 01:06:41;;;;;;;4.53;3.72;;;;;;;;;;2087957;28;20172;-63
2021/05/09 01:07:41;;;;;;;3.85;3.55;;;;;;;;;;2090002;28;20262;-62
2021/05/09 01:08:43;;;;;;;5.30;4.90;;;;;;;;;;2088327;28;20179;-62
2021/05/09 01:09:43;;;;;;;3.55;3.25;;;;;;;;;;2090503;28;20195;-61
2021/05/09 01:10:43;;;;;;;3.70;3.40;;;;;;;;;;2090441;28;20230;-60
2021/05/09 01:11:44;;;;;;;5.22;4.78;;;;;;;;;;2090163;28;20167;-62
2021/05/09 01:12:44;;;;;;;3.85;3.25;;;;;;;;;;2083320;28;20202;-62
2021/05/09 01:13:45;;;;;;;4.28;3.25;;;;;;;;;;2098001;28;20202;-64
2021/05/09 01:14:46;;;;;;;3.88;3.63;;;;;;;;;;2091786;28;20178;-63
2021/05/09 01:15:47;;;;;;;3.85;3.65;;;;;;;;;;2093219;28;20210;-63
2021/05/09 01:16:47;;;;;;;6.43;4.28;;;;;;;;;;2090025;28;20844;-62
2021/05/09 01:17:48;;;;;;;3.95;3.63;;;;;;;;;;2090160;28;20267;-66
2021/05/09 01:18:48;;;;;;;3.72;3.42;;;;;;;;;;2087672;28;20175;-63
2021/05/09 01:19:49;;;;;;;4.78;4.38;;;;;;;;;;2089996;28;20168;-63
2021/05/09 01:20:49;;;;;;;6.07;4.80;;;;;;;;;;2089623;28;20199;-66
2021/05/09 01:21:50;;;;;;;4.93;4.10;;;;;;;;;;2098351;28;20169;-64
2021/05/09 01:22:52;;;;;;;4.72;4.32;;;;;;;;;;2091793;28;20187;-61
2021/05/09 01:23:53;;;;;;;4.20;3.83;;;;;;;;;;2090215;28;20249;-62
2021/05/09 01:24:53;;;;;;;3.90;3.60;;;;;;;;;;2090421;28;20606;-62
2021/05/09 01:25:53;;;;;;;4.45;3.75;;;;;;;;;;2090379;28;20661;-63
2021/05/09 01:26:54;;;;;;;3.42;3.20;;;;;;;;;;2083459;28;20192;-63
2021/05/09 01:27:56;;;;;;;3.95;3.70;;;;;;;;;;2098052;28;20209;-64
2021/05/09 01:28:57;;;;;;;4.50;3.75;;;;;;;;;;2090891;28;20271;-63
2021/05/09 01:29:57;;;;;;;3.97;3.67;;;;;;;;;;2089381;28;20557;-64
2021/05/09 01:30:58;;;;;;;3.95;3.55;;;;;;;;;;2091121;28;20171;-62
2021/05/09 01:31:59;;;;;;;3.40;3.20;;;;;;;;;;2095917;28;20296;-62
2021/05/09 01:32:59;;;;;;;3.78;3.47;;;;;;;;;;2091863;28;20199;-63
2021/05/09 01:34:00;;;;;;;3.80;3.50;;;;;;;;;;2097482;28;20229;-63
2021/05/09 01:35:00;;;;;;;3.67;3.47;;;;;;;;;;2092433;28;20298;-65
2021/05/09 01:36:01;;;;;;;4.45;3.90;;;;;;;;;;2099213;28;20204;-64
2021/05/09 01:37:02;;;;;;;3.70;3.40;;;;;;;;;;2095496;28;20232;-62
2021/05/09 01:38:03;;;;;;;3.92;3.63;;;;;;;;;;2090095;28;20164;-64
2021/05/09 01:39:05;;;;;;;4.10;3.70;;;;;;;;;;2091984;28;20381;-64
2021/05/09 01:40:06;;;;;;;3.90;3.42;;;;;;;;;;2088161;28;20183;-63
2021/05/09 01:41:07;;;;;;;3.95;3.65;;;;;;;;;;2084302;28;20620;-63
2021/05/09 01:42:07;;;;;;;4.03;3.70;;;;;;;;;;2086136;28;21344;-63
2021/05/09 01:43:10;;;;;;;4.97;3.67;;;;;;;;;;2080591;28;20591;-62
2021/05/09 01:44:10;;;;;;;4.03;3.65;;;;;;;;;;2098207;22;20222;-61
2021/05/09 01:45:11;;;;;;;3.60;3.40;;;;;;;;;;2092757;28;20553;-59
2021/05/09 01:46:12;;;;;;;4.32;3.65;;;;;;;;;;2105597;28;20163;-61
2021/05/09 01:47:12;;;;;;;3.60;3.30;;;;;;;;;;2093880;28;20267;-62
2021/05/09 01:48:12;;;;;;;4.47;3.65;;;;;;;;;;2098013;28;20175;-62
2021/05/09 01:49:13;;;;;;;3.53;3.22;;;;;;;;;;2094013;28;20257;-63
2021/05/09 01:50:14;;;;;;;5.22;3.60;;;;;;;;;;2090307;28;20557;-62
2021/05/09 01:51:15;;;;;;;5.20;3.22;;;;;;;;;;2098895;28;20178;-61
2021/05/09 01:52:16;;;;;;;7.03;4.38;;;;;;;;;;2098381;28;20214;-63
2021/05/09 01:53:17;;;;;;;4.47;3.92;;;;;;;;;;2096641;28;20309;-65
2021/05/09 01:54:17;;;;;;;4.53;4.13;;;;;;;;;;2101746;28;20182;-62
2021/05/09 01:55:19;;;;;;;4.20;3.80;;;;;;;;;;2096010;28;20202;-62
2021/05/09 01:56:28;;;;;;;4.13;3.83;;;;;;;;;;2091416;28;20203;-62
2021/05/09 01:57:28;;;;;;;3.72;3.42;;;;;;;;;;2090282;28;20168;-59
2021/05/09 01:58:30;;;;;;;5.80;3.83;;;;;;;;;;2090515;28;20213;-62
2021/05/09 01:59:44;;;;;;;4.30;3.90;;;;;;;;;;2100322;28;20158;-61
2021/05/09 02:00:45;;;;;;;4.18;3.88;;;;;;;;;;2104563;28;20211;-61
2021/05/09 02:01:54;;;;;;;3.78;3.28;;;;;;;;;;2107004;28;20239;-62
2021/05/09 02:03:06;;;;;;;4.20;3.80;;;;;;;;;;2106107;28;20209;-61
2021/05/09 02:04:08;;;;;;;4.88;3.78;;;;;;;;;;2097933;28;20282;-63
2021/05/09 02:05:10;;;;;;;3.80;3.60;;;;;;;;;;2094704;28;20183;-63
2021/05/09 02:06:10;;;;;;;3.85;3.35;;;;;;;;;;2093301;28;20183;-63
2021/05/09 02:07:10;;;;;;;3.72;3.50;;;;;;;;;;2098118;28;20177;-62
2021/05/09 02:08:14;;;;;;;4.07;3.75;;;;;;;;;;2107516;28;20177;-62
2021/05/09 02:09:20;;;;;;;3.72;3.42;;;;;;;;;;2094701;28;20597;-61
2021/05/09 02:10:20;;;;;;;4.20;3.78;;;;;;;;;;2098094;28;20171;-60
2021/05/09 02:11:23;;;;;;;4.57;3.35;;;;;;;;;;2098291;28;20765;-63
2021/05/09 02:12:27;;;;;;;3.45;3.25;;;;;;;;;;2088936;28;20179;-60
2021/05/09 02:13:38;;;;;;;4.00;3.80;;;;;;;;;;2097451;28;20592;-63
2021/05/09 02:14:48;;;;;;;3.25;3.05;;;;;;;;;;2097336;28;20213;-61
2021/05/09 02:15:48;;;;;;;3.95;3.65;;;;;;;;;;2097950;28;20204;-61
2021/05/09 02:16:49;;;;;;;4.28;3.50;;;;;;;;;;2089332;28;20179;-61
2021/05/09 02:17:51;;;;;;;4.82;4.00;;;;;;;;;;2082080;28;20180;-65
2021/05/09 02:18:55;;;;;;;3.92;3.63;;;;;;;;;;2092430;28;20245;-62
2021/05/09 02:20:06;;;;;;;3.63;3.33;;;;;;;;;;2097332;28;20175;-58
2021/05/09 02:21:08;;;;;;;4.85;3.78;;;;;;;;;;2084581;28;20643;-63
2021/05/09 02:22:08;;;;;;;3.95;3.65;;;;;;;;;;2088841;28;20168;-63
2021/05/09 02:23:09;;;;;;;3.47;3.28;;;;;;;;;;2089085;28;20183;-63
2021/05/09 02:24:10;;;;;;;3.33;3.13;;;;;;;;;;2089203;28;20191;-63
2021/05/09 02:25:10;;;;;;;4.20;3.80;;;;;;;;;;2092576;28;20179;-63
2021/05/09 02:26:12;;;;;;;3.53;3.33;;;;;;;;;;2106759;28;20166;-61
2021/05/09 02:27:12;;;;;;;3.53;3.22;;;;;;;;;;2107196;28;20200;-60
2021/05/09 02:28:13;;;;;;;4.82;3.22;;;;;;;;;;2094267;28;20171;-60
2021/05/09 02:29:14;;;;;;;4.28;3.88;;;;;;;;;;2088900;28;20176;-59
2021/05/09 02:30:16;;;;;;;4.97;3.53;;;;;;;;;;2087434;28;20235;-59
2021/05/09 02:31:17;;;;;;;4.38;4.07;;;;;;;;;;2098241;28;20212;-62
2021/05/09 02:32:17;;;;;;;3.40;3.20;;;;;;;;;;2097533;28;20224;-60
2021/05/09 02:33:18;;;;;;;3.90;3.60;;;;;;;;;;2090325;28;20176;-60
2021/05/09 02:34:20;;;;;;;3.72;3.42;;;;;;;;;;2102640;28;20191;-63
2021/05/09 02:35:20;;;;;;;4.35;3.75;;;;;;;;;;2104549;28;20183;-60
2021/05/09 02:36:20;;;;;;;4.72;3.58;;;;;;;;;;2102836;28;20167;-62
2021/05/09 02:37:21;;;;;;;3.97;3.63;;;;;;;;;;2106898;28;20173;-60
2021/05/09 02:38:21;;;;;;;3.88;3.58;;;;;;;;;;2106536;28;20177;-61
2021/05/09 02:39:23;;;;;;;3.40;3.20;;;;;;;;;;2097549;28;20171;-61
2021/05/09 02:40:24;;;;;;;3.50;3.30;;;;;;;;;;2098361;28;20273;-60
2021/05/09 02:41:24;;;;;;;3.72;3.42;;;;;;;;;;2099156;28;20178;-60
2021/05/09 02:42:24;;;;;;;3.60;3.30;;;;;;;;;;2098858;28;20258;-61
2021/05/09 02:43:25;;;;;;;3.88;3.60;;;;;;;;;;2089705;28;20186;-63
2021/05/09 02:44:25;;;;;;;4.25;3.90;;;;;;;;;;2086648;28;20199;-63
2021/05/09 02:45:26;;;;;;;3.95;3.65;;;;;;;;;;2098387;28;20166;-61
2021/05/09 02:46:26;;;;;;;4.20;3.80;;;;;;;;;;2107350;28;20205;-62
2021/05/09 02:47:30;;;;;;;3.92;3.63;;;;;;;;;;2098484;28;20170;-63
2021/05/09 02:48:36;;;;;;;4.13;3.83;;;;;;;;;;2091086;28;20171;-59
2021/05/09 02:49:36;;;;;;;4.28;3.47;;;;;;;;;;2084123;28;20173;-62
2021/05/09 02:50:37;;;;;;;4.05;3.67;;;;;;;;;;2089795;28;20187;-62
2021/05/09 02:51:38;;;;;;;3.53;3.33;;;;;;;;;;2089923;28;20168;-61
2021/05/09 02:52:38;;;;;;;3.70;3.50;;;;;;;;;;2092719;28;20990;-61
2021/05/09 02:53:39;;;;;;;3.88;3.58;;;;;;;;;;2092949;28;20171;-60
2021/05/09 02:54:39;;;;;;;3.90;3.60;;;;;;;;;;2088607;28;20186;-63
2021/05/09 02:55:40;;;;;;;3.50;3.28;;;;;;;;;;2090915;28;20656;-62
2021/05/09 02:56:40;;;;;;;4.22;3.83;;;;;;;;;;2090611;28;20203;-63
2021/05/09 02:57:41;;;;;;;3.90;3.70;;;;;;;;;;2096684;28;20187;-60
2021/05/09 02:58:41;;;;;;;4.00;3.60;;;;;;;;;;2106147;28;20177;-59
2021/05/09 02:59:41;;;;;;;4.90;4.00;;;;;;;;;;2097214;28;20182;-57
2021/05/09 03:00:42;;;;;;;4.00;3.80;;;;;;;;;;2088932;28;20195;-60
2021/05/09 03:01:50;;;;;;;4.43;4.13;;;;;;;;;;2090135;28;20166;-58
2021/05/09 03:02:50;;;;;;;4.32;3.92;;;;;;;;;;2091611;28;20277;-61
2021/05/09 03:03:55;;;;;;;4.10;3.80;;;;;;;;;;2101876;28;20706;-61
2021/05/09 03:04:56;;;;;;;3.80;3.42;;;;;;;;;;2095653;28;20182;-59
2021/05/09 03:05:56;;;;;;;3.72;3.47;;;;;;;;;;2089865;28;20175;-61
2021/05/09 03:06:57;;;;;;;3.67;3.38;;;;;;;;;;2097668;28;20171;-62
2021/05/09 03:07:58;;;;;;;4.10;3.80;;;;;;;;;;2088763;28;20186;-60
2021/05/09 03:08:59;;;;;;;3.65;3.38;;;;;;;;;;2081207;28;20214;-61
2021/05/09 03:09:59;;;;;;;3.90;3.60;;;;;;;;;;2086904;28;20608;-61
2021/05/09 03:11:01;;;;;;;4.03;3.72;;;;;;;;;;2088464;28;20657;-61
2021/05/09 03:12:01;;;;;;;4.03;3.72;;;;;;;;;;2088725;28;20178;-61
2021/05/09 03:13:02;;;;;;;4.22;3.97;;;;;;;;;;2088998;28;20688;-63
2021/05/09 03:14:03;;;;;;;3.97;3.65;;;;;;;;;;2088748;28;20270;-61
2021/05/09 03:15:03;;;;;;;3.72;3.53;;;;;;;;;;2097719;28;20170;-61
2021/05/09 03:16:04;;;;;;;4.07;3.78;;;;;;;;;;2100312;28;20190;-61
2021/05/09 03:17:04;;;;;;;3.55;3.35;;;;;;;;;;2107270;28;20302;-62
2021/05/09 03:18:04;;;;;;;3.97;3.75;;;;;;;;;;2105596;28;20725;-62
2021/05/09 03:19:04;;;;;;;4.85;4.35;;;;;;;;;;2105574;28;20186;-62
2021/05/09 03:20:05;;;;;;;3.65;3.45;;;;;;;;;;2105837;28;20193;-62
2021/05/09 03:21:05;;;;;;;4.60;4.20;;;;;;;;;;2106275;28;20237;-61
2021/05/09 03:22:05;;;;;;;5.25;3.88;;;;;;;;;;2097746;28;20221;-62
2021/05/09 03:23:06;;;;;;;3.67;3.38;;;;;;;;;;2097377;28;20305;-63
2021/05/09 03:24:07;;;;;;;4.00;3.63;;;;;;;;;;2096260;28;20191;-62
2021/05/09 03:25:07;;;;;;;4.40;4.10;;;;;;;;;;2097062;28;20190;-62
2021/05/09 03:26:07;;;;;;;4.82;4.00;;;;;;;;;;2106794;28;20165;-62
2021/05/09 03:27:08;;;;;;;4.53;4.13;;;;;;;;;;2106715;28;20177;-62
2021/05/09 03:28:08;;;;;;;4.13;3.90;;;;;;;;;;2105070;28;20643;-62
2021/05/09 03:29:08;;;;;;;4.63;3.90;;;;;;;;;;2098816;28;20171;-62
2021/05/09 03:30:09;;;;;;;4.32;4.00;;;;;;;;;;2098202;28;20175;-61
2021/05/09 03:31:09;;;;;;;4.15;3.78;;;;;;;;;;2106621;28;20190;-59
2021/05/09 03:32:10;;;;;;;3.90;3.60;;;;;;;;;;2097174;28;20246;-60
2021/05/09 03:33:10;;;;;;;4.28;3.72;;;;;;;;;;2097980;28;20640;-62
2021/05/09 03:34:10;;;;;;;4.05;3.65;;;;;;;;;;2101590;28;20554;-61
2021/05/09 03:35:11;;;;;;;3.88;3.58;;;;;;;;;;2097511;28;20178;-60
2021/05/09 03:36:11;;;;;;;4.20;3.88;;;;;;;;;;2097664;28;20197;-62
2021/05/09 03:37:12;;;;;;;4.05;3.65;;;;;;;;;;2102039;28;20685;-61
2021/05/09 03:38:12;;;;;;;3.90;3.65;;;;;;;;;;2106229;28;20172;-62
2021/05/09 03:39:12;;;;;;;4.20;3.63;;;;;;;;;;2106267;28;20638;-61
2021/05/09 03:40:13;;;;;;;3.90;3.60;;;;;;;;;;2105578;28;20545;-62
2021/05/09 03:41:13;;;;;;;4.00;3.70;;;;;;;;;;2105405;28;20168;-62
2021/05/09 03:42:13;;;;;;;3.67;3.38;;;;;;;;;;2105866;28;20241;-63
2021/05/09 03:43:14;;;;;;;4.38;3.72;;;;;;;;;;2096257;28;20201;-62
2021/05/09 03:44:14;;;;;;;4.03;3.70;;;;;;;;;;2097217;28;20764;-62
2021/05/09 03:45:14;;;;;;;4.13;3.75;;;;;;;;;;2101830;28;20182;-62
2021/05/09 03:46:14;;;;;;;3.63;3.33;;;;;;;;;;2106790;28;20178;-62
2021/05/09 03:47:15;;;;;;;3.97;3.67;;;;;;;;;;2089019;28;20223;-62
2021/05/09 03:48:15;;;;;;;3.35;3.10;;;;;;;;;;2089495;28;20176;-63
2021/05/09 03:49:15;;;;;;;3.97;3.67;;;;;;;;;;2104429;28;20216;-62
2021/05/09 03:50:15;;;;;;;4.03;3.72;;;;;;;;;;2101649;28;20174;-66
2021/05/09 03:51:16;;;;;;;3.75;3.45;;;;;;;;;;2106685;28;20969;-62
2021/05/09 03:52:16;;;;;;;3.90;3.60;;;;;;;;;;2106028;28;20178;-62
2021/05/09 03:53:16;;;;;;;3.53;3.33;;;;;;;;;;2095854;28;20256;-63
2021/05/09 03:54:16;;;;;;;3.55;3.30;;;;;;;;;;2096436;28;20781;-62
2021/05/09 03:55:17;;;;;;;3.85;3.38;;;;;;;;;;2101569;28;20166;-62
2021/05/09 03:56:17;;;;;;;4.28;3.53;;;;;;;;;;2106796;28;20167;-61
2021/05/09 03:57:17;;;;;;;3.42;3.13;;;;;;;;;;2105404;28;20642;-62
2021/05/09 03:58:17;;;;;;;4.10;3.42;;;;;;;;;;2106300;28;20174;-62
2021/05/09 03:59:18;;;;;;;3.60;3.40;;;;;;;;;;2105874;28;20191;-62
2021/05/09 04:00:18;;;;;;;3.70;3.50;;;;;;;;;;2096506;28;20273;-61
2021/05/09 04:01:19;;;;;;;5.05;3.75;;;;;;;;;;2094099;28;20173;-61
2021/05/09 04:02:19;;;;;;;4.07;3.67;;;;;;;;;;2105889;28;20542;-61
2021/05/09 04:03:20;;;;;;;4.28;3.45;;;;;;;;;;2105102;28;20162;-62
2021/05/09 04:04:21;;;;;;;3.75;3.55;;;;;;;;;;2097552;28;20221;-62
2021/05/09 04:05:21;;;;;;;3.40;3.20;;;;;;;;;;2097152;28;20659;-62
2021/05/09 04:06:21;;;;;;;4.72;3.42;;;;;;;;;;2106195;28;20202;-62
2021/05/09 04:07:21;;;;;;;3.50;3.28;;;;;;;;;;2105937;28;20163;-61
2021/05/09 04:08:23;;;;;;;3.25;3.00;;;;;;;;;;2105470;28;20214;-63
2021/05/09 04:09:23;;;;;;;3.53;3.30;;;;;;;;;;2106718;28;20193;-61
2021/05/09 04:10:24;;;;;;;3.65;3.35;;;;;;;;;;2104048;28;20170;-61
2021/05/09 04:11:24;;;;;;;3.70;3.33;;;;;;;;;;2106034;28;20232;-62
2021/05/09 04:12:24;;;;;;;4.15;3.25;;;;;;;;;;2106260;28;20519;-61
2021/05/09 04:13:24;;;;;;;4.15;3.85;;;;;;;;;;2099250;28;20209;-62
2021/05/09 04:14:25;;;;;;;3.67;3.35;;;;;;;;;;2089583;28;20203;-62
2021/05/09 04:15:25;;;;;;;5.88;3.60;;;;;;;;;;2096626;28;20671;-61
2021/05/09 04:16:25;;;;;;;3.88;3.47;;;;;;;;;;2106641;28;20657;-62
2021/05/09 04:17:26;;;;;;;4.47;3.67;;;;;;;;;;2104709;28;20192;-62
2021/05/09 04:18:26;;;;;;;3.60;3.00;;;;;;;;;;2106803;28;20165;-61
2021/05/09 04:19:26;;;;;;;3.92;3.53;;;;;;;;;;2097437;28;20204;-60
2021/05/09 04:20:26;;;;;;;3.80;3.60;;;;;;;;;;2097477;28;20198;-61
2021/05/09 04:21:26;;;;;;;3.80;3.60;;;;;;;;;;2106777;28;20162;-60
2021/05/09 04:22:27;;;;;;;3.33;3.13;;;;;;;;;;2106133;28;20666;-61
2021/05/09 04:23:27;;;;;;;3.63;3.33;;;;;;;;;;2103650;28;20178;-61
2021/05/09 04:24:27;;;;;;;4.80;3.40;;;;;;;;;;2104999;28;20188;-62
2021/05/09 04:25:27;;;;;;;4.53;3.22;;;;;;;;;;2097231;28;20212;-61
2021/05/09 04:26:28;;;;;;;5.05;3.83;;;;;;;;;;2097083;28;20214;-62
2021/05/09 04:27:28;;;;;;;3.13;2.92;;;;;;;;;;2096148;28;20655;-62
2021/05/09 04:28:28;;;;;;;4.00;3.55;;;;;;;;;;2097521;28;20163;-59
2021/05/09 04:29:28;;;;;;;4.28;3.40;;;;;;;;;;2103057;28;20199;-66
2021/05/09 04:30:29;;;;;;;3.65;3.22;;;;;;;;;;2104544;28;20209;-62
2021/05/09 04:31:30;;;;;;;4.43;3.40;;;;;;;;;;2104563;28;20166;-61
2021/05/09 04:32:30;;;;;;;3.78;3.45;;;;;;;;;;2103017;28;20178;-61
2021/05/09 04:33:30;;;;;;;3.53;3.28;;;;;;;;;;2104571;28;20171;-62
2021/05/09 04:34:31;;;;;;;3.83;3.45;;;;;;;;;;2105410;28;20193;-62
2021/05/09 04:35:31;;;;;;;3.97;3.40;;;;;;;;;;2106582;28;20178;-61
2021/05/09 04:36:31;;;;;;;3.42;3.22;;;;;;;;;;2097464;28;20163;-61
2021/05/09 04:37:32;;;;;;;2.95;2.70;;;;;;;;;;2096294;28;20186;-63
2021/05/09 04:38:32;;;;;;;3.33;3.10;;;;;;;;;;2099522;28;20213;-62
2021/05/09 04:39:32;;;;;;;3.47;3.28;;;;;;;;;;2096719;28;20667;-61
2021/05/09 04:40:33;;;;;;;3.33;3.03;;;;;;;;;;2097126;28;20202;-60
2021/05/09 04:41:33;;;;;;;3.30;3.10;;;;;;;;;;2080197;28;20168;-61
2021/05/09 04:42:33;;;;;;;3.63;3.42;;;;;;;;;;2082730;28;20176;-62
2021/05/09 04:43:35;;;;;;;3.38;3.17;;;;;;;;;;2095907;28;20655;-62
2021/05/09 04:44:35;;;;;;;3.55;3.35;;;;;;;;;;2100016;28;20191;-61
2021/05/09 04:45:35;;;;;;;5.63;3.78;;;;;;;;;;2103854;28;20161;-62
2021/05/09 04:46:36;;;;;;;3.85;3.47;;;;;;;;;;2106011;28;20159;-60
2021/05/09 04:47:36;;;;;;;3.47;2.92;;;;;;;;;;2105646;28;20544;-61
2021/05/09 04:48:36;;;;;;;3.28;3.08;;;;;;;;;;2106388;28;20178;-62
2021/05/09 04:49:36;;;;;;;3.25;3.05;;;;;;;;;;2105241;28;20170;-61
2021/05/09 04:50:37;;;;;;;3.10;2.90;;;;;;;;;;2106354;28;20173;-59
2021/05/09 04:51:37;;;;;;;3.17;2.90;;;;;;;;;;2096788;28;20175;-63
2021/05/09 04:52:37;;;;;;;3.35;3.15;;;;;;;;;;2087838;28;20232;-62
2021/05/09 04:53:38;;;;;;;3.67;3.38;;;;;;;;;;2095382;28;20659;-62
2021/05/09 04:54:38;;;;;;;3.42;3.13;;;;;;;;;;2091968;28;20179;-61
2021/05/09 04:55:38;;;;;;;3.40;3.20;;;;;;;;;;2093051;28;20232;-60
2021/05/09 04:56:38;;;;;;;3.72;3.25;;;;;;;;;;2097630;28;20178;-60
2021/05/09 04:57:39;;;;;;;3.28;3.08;;;;;;;;;;2098151;28;20171;-62
2021/05/09 04:58:40;;;;;;;3.15;2.95;;;;;;;;;;2102991;28;20555;-62
2021/05/09 04:59:40;;;;;;;3.25;3.05;;;;;;;;;;2106096;28;20176;-61
2021/05/09 05:00:40;;;;;;;3.38;2.88;;;;;;;;;;2100071;28;20573;-61
2021/05/09 05:01:41;;;;;;;3.38;3.17;;;;;;;;;;2105062;28;20166;-62
2021/05/09 05:02:44;;;;;;;3.50;3.25;;;;;;;;;;2103613;28;20604;-61
2021/05/09 05:03:46;;;;;;;3.40;3.03;;;;;;;;;;2101968;28;20185;-62
2021/05/09 05:04:46;;;;;;;3.65;3.42;;;;;;;;;;2105934;28;20169;-64
2021/05/09 05:05:47;;;;;;;3.70;3.38;;;;;;;;;;2100209;28;20535;-63
2021/05/09 05:06:47;;;;;;;3.30;3.10;;;;;;;;;;2100105;28;20205;-60
2021/05/09 05:07:47;;;;;;;3.33;3.10;;;;;;;;;;2107640;28;20162;-61
2021/05/09 05:08:48;;;;;;;3.10;2.78;;;;;;;;;;2106430;28;20163;-63
2021/05/09 05:09:48;;;;;;;3.03;2.92;;;;;;;;;;2095336;28;20191;-62
2021/05/09 05:10:52;;;;;;;3.40;3.20;;;;;;;;;;2088641;28;20188;-62
2021/05/09 05:11:53;;;;;;;3.10;2.90;;;;;;;;;;2081481;28;20213;-61
2021/05/09 05:12:53;;;;;;;3.28;2.90;;;;;;;;;;2089197;28;20648;-59
2021/05/09 05:13:54;;;;;;;3.20;2.90;;;;;;;;;;2105821;28;20221;-61
2021/05/09 05:14:54;;;;;;;3.20;3.00;;;;;;;;;;2099546;28;20651;-62
2021/05/09 05:15:55;;;;;;;3.22;2.92;;;;;;;;;;2104943;28;20189;-61
2021/05/09 05:16:55;;;;;;;3.00;2.80;;;;;;;;;;2101804;28;20187;-61
2021/05/09 05:17:55;;;;;;;3.28;3.00;;;;;;;;;;2104671;28;20202;-59
2021/05/09 05:18:56;;;;;;;3.17;2.97;;;;;;;;;;2104768;28;20186;-62
2021/05/09 05:19:56;;;;;;;3.53;3.22;;;;;;;;;;2106386;28;20174;-60
2021/05/09 05:21:01;;;;;;;3.20;3.00;;;;;;;;;;2096859;28;20194;-61
2021/05/09 05:22:02;;;;;;;3.10;2.90;;;;;;;;;;2097161;28;20651;-60
2021/05/09 05:23:03;;;;;;;4.70;2.75;;;;;;;;;;2104658;28;20582;-62
2021/05/09 05:24:03;;;;;;;3.25;3.05;;;;;;;;;;2088361;28;20187;-61
2021/05/09 05:25:04;;;;;;;3.42;3.05;;;;;;;;;;2088202;28;20176;-61
2021/05/09 05:26:04;;;;;;;3.47;3.17;;;;;;;;;;2094759;28;20694;-61
2021/05/09 05:27:05;;;;;;;3.42;3.08;;;;;;;;;;2087986;28;20215;-61
2021/05/09 05:28:05;;;;;;;3.40;3.10;;;;;;;;;;2096298;28;20273;-62
2021/05/09 05:29:05;;;;;;;3.10;2.90;;;;;;;;;;2102183;28;20169;-62
2021/05/09 05:30:06;;;;;;;3.08;2.88;;;;;;;;;;2092457;28;20187;-62
2021/05/09 05:31:06;;;;;;;2.58;2.47;;;;;;;;;;2088769;28;20214;-61
2021/05/09 05:32:06;;;;;;;2.88;2.67;;;;;;;;;;2097234;28;20178;-60
2021/05/09 05:33:07;;;;;;;3.30;3.10;;;;;;;;;;2105366;28;20201;-61
2021/05/09 05:34:07;;;;;;;2.83;2.70;;;;;;;;;;2105259;28;20378;-63
2021/05/09 05:35:07;;;;;;;3.10;2.70;;;;;;;;;;2101824;28;20301;-62
2021/05/09 05:36:09;;;;;;;3.42;3.00;;;;;;;;;;2106813;28;20604;-63
2021/05/09 05:37:09;;;;;;;4.22;2.70;;;;;;;;;;2102140;28;20167;-62
2021/05/09 05:38:09;;;;;;;3.40;3.10;;;;;;;;;;2097776;28;20528;-62
2021/05/09 05:39:10;;;;;;;3.47;2.78;;;;;;;;;;2100798;28;20169;-63
2021/05/09 05:40:10;;;;;;;3.92;2.85;;;;;;;;;;2104472;28;20186;-62
2021/05/09 05:41:11;;;;;;;3.55;2.85;;;;;;;;;;2097330;28;20182;-62
2021/05/09 05:42:11;;;;;;;3.00;2.80;;;;;;;;;;2096043;28;20252;-62
2021/05/09 05:43:11;;;;;;;3.05;2.75;;;;;;;;;;2099832;28;20638;-63
2021/05/09 05:44:12;;;;;;;2.47;2.28;;;;;;;;;;2104336;28;20208;-61
2021/05/09 05:45:12;;;;;;;3.15;2.90;;;;;;;;;;2106331;28;20178;-61
2021/05/09 05:46:12;;;;;;;2.92;2.72;;;;;;;;;;2102064;28;20250;-62
2021/05/09 05:47:13;;;;;;;2.88;2.67;;;;;;;;;;2104020;28;20179;-62
2021/05/09 05:48:13;;;;;;;3.13;2.70;;;;;;;;;;2105919;28;20178;-62
2021/05/09 05:49:13;;;;;;;3.15;2.95;;;;;;;;;;2106224;28;20693;-63
2021/05/09 05:50:13;;;;;;;3.63;2.88;;;;;;;;;;2092950;28;20553;-63
2021/05/09 05:51:14;;;;;;;4.85;3.25;;;;;;;;;;2097800;28;20170;-62
2021/05/09 05:52:14;;;;;;;3.60;3.20;;;;;;;;;;2101602;28;20174;-60
2021/05/09 05:53:17;;;;;;;3.97;2.78;;;;;;;;;;2103892;28;20210;-61
2021/05/09 05:54:18;;;;;;;3.05;2.80;;;;;;;;;;2093486;28;20179;-62
2021/05/09 05:55:18;;;;;;;2.65;2.50;;;;;;;;;;2090076;28;20708;-62
2021/05/09 05:56:18;;;;;;;2.78;2.28;;;;;;;;;;2098900;28;20671;-62
2021/05/09 05:57:18;;;;;;;2.50;2.40;;;;;;;;;;2098542;28;20233;-61
2021/05/09 05:58:19;;;;;;;3.20;2.80;;;;;;;;;;2107866;28;20339;-61
2021/05/09 05:59:19;;;;;;;2.95;2.75;;;;;;;;;;2098350;28;20163;-61
2021/05/09 06:00:19;;;;;;;2.95;2.75;;;;;;;;;;2098826;28;20251;-63
2021/05/09 06:01:20;;;;;;;4.15;2.75;;;;;;;;;;2104131;28;20277;-62
2021/05/09 06:02:21;;;;;;;4.75;2.63;;;;;;;;;;2095127;28;20159;-61
2021/05/09 06:03:23;;;;;;;3.00;2.70;;;;;;;;;;2089955;28;20246;-61
2021/05/09 06:04:23;;;;;;;2.83;2.60;;;;;;;;;;2086959;28;20721;-61
2021/05/09 06:05:23;;;;;;;2.75;2.50;;;;;;;;;;2098427;28;20179;-63